sensor_id;sensor_type;location;lat;lon;timestamp;P1;durP1;ratioP1;P2;durP2;ratioP2
73951;SDS011;62304;47.662;18.324;2024-02-21T00:02:43;6.65;;;2.70;;
73951;SDS011;62304;47.662;18.324;2024-02-21T00:05:47;6.37;;;2.53;;
73951;SDS011;62304;47.662;18.324;2024-02-21T00:08:50;4.55;;;2.10;;
73951;SDS011;62304;47.662;18.324;2024-02-21T00:11:53;3.97;;;2.00;;
73951;SDS011;62304;47.662;18.324;2024-02-21T00:14:57;4.87;;;1.55;;
73951;SDS011;62304;47.662;18.324;2024-02-21T00:18:00;6.15;;;1.80;;
73951;SDS011;62304;47.662;18.324;2024-02-21T00:21:03;3.90;;;1.42;;
73951;SDS011;62304;47.662;18.324;2024-02-21T00:24:07;4.65;;;1.80;;
73951;SDS011;62304;47.662;18.324;2024-02-21T00:27:10;5.87;;;1.73;;
73951;SDS011;62304;47.662;18.324;2024-02-21T00:30:13;5.68;;;1.70;;
73951;SDS011;62304;47.662;18.324;2024-02-21T00:33:17;4.32;;;1.55;;
73951;SDS011;62304;47.662;18.324;2024-02-21T00:36:20;4.90;;;1.20;;
73951;SDS011;62304;47.662;18.324;2024-02-21T00:39:23;4.35;;;1.70;;
73951;SDS011;62304;47.662;18.324;2024-02-21T00:42:26;5.47;;;1.57;;
73951;SDS011;62304;47.662;18.324;2024-02-21T00:45:29;3.30;;;1.05;;
73951;SDS011;62304;47.662;18.324;2024-02-21T00:48:32;4.32;;;1.02;;
73951;SDS011;62304;47.662;18.324;2024-02-21T00:51:36;4.40;;;1.70;;
73951;SDS011;62304;47.662;18.324;2024-02-21T00:54:40;5.72;;;2.15;;
73951;SDS011;62304;47.662;18.324;2024-02-21T00:57:54;5.83;;;1.83;;
73951;SDS011;62304;47.662;18.324;2024-02-21T01:00:58;4.93;;;2.12;;
73951;SDS011;62304;47.662;18.324;2024-02-21T01:04:01;5.12;;;1.90;;
73951;SDS011;62304;47.662;18.324;2024-02-21T01:07:04;4.53;;;1.80;;
73951;SDS011;62304;47.662;18.324;2024-02-21T01:10:08;4.70;;;1.70;;
73951;SDS011;62304;47.662;18.324;2024-02-21T01:13:11;5.70;;;1.90;;
73951;SDS011;62304;47.662;18.324;2024-02-21T01:16:14;3.15;;;1.10;;
73951;SDS011;62304;47.662;18.324;2024-02-21T01:19:18;3.90;;;1.35;;
73951;SDS011;62304;47.662;18.324;2024-02-21T01:22:21;4.78;;;1.50;;
73951;SDS011;62304;47.662;18.324;2024-02-21T01:25:25;5.40;;;1.70;;
73951;SDS011;62304;47.662;18.324;2024-02-21T01:28:28;3.97;;;1.30;;
73951;SDS011;62304;47.662;18.324;2024-02-21T01:31:31;4.22;;;1.45;;
73951;SDS011;62304;47.662;18.324;2024-02-21T01:34:35;4.90;;;1.40;;
73951;SDS011;62304;47.662;18.324;2024-02-21T01:37:38;4.95;;;1.70;;
73951;SDS011;62304;47.662;18.324;2024-02-21T01:40:42;4.93;;;1.50;;
73951;SDS011;62304;47.662;18.324;2024-02-21T01:43:45;3.57;;;1.57;;
73951;SDS011;62304;47.662;18.324;2024-02-21T01:46:48;3.97;;;1.10;;
73951;SDS011;62304;47.662;18.324;2024-02-21T01:49:52;4.03;;;1.55;;
73951;SDS011;62304;47.662;18.324;2024-02-21T01:52:55;4.40;;;1.50;;
73951;SDS011;62304;47.662;18.324;2024-02-21T01:55:59;4.70;;;1.48;;
73951;SDS011;62304;47.662;18.324;2024-02-21T01:59:03;4.63;;;0.63;;
73951;SDS011;62304;47.662;18.324;2024-02-21T02:02:06;4.35;;;1.60;;
73951;SDS011;62304;47.662;18.324;2024-02-21T02:05:10;4.90;;;1.65;;
73951;SDS011;62304;47.662;18.324;2024-02-21T02:08:18;7.37;;;2.25;;
73951;SDS011;62304;47.662;18.324;2024-02-21T02:11:22;4.43;;;1.67;;
73951;SDS011;62304;47.662;18.324;2024-02-21T02:14:25;4.17;;;1.43;;
73951;SDS011;62304;47.662;18.324;2024-02-21T02:17:29;4.82;;;1.67;;
73951;SDS011;62304;47.662;18.324;2024-02-21T02:20:32;5.25;;;1.60;;
73951;SDS011;62304;47.662;18.324;2024-02-21T02:23:35;5.47;;;1.80;;
73951;SDS011;62304;47.662;18.324;2024-02-21T02:26:38;6.72;;;1.70;;
73951;SDS011;62304;47.662;18.324;2024-02-21T02:29:42;6.80;;;1.80;;
73951;SDS011;62304;47.662;18.324;2024-02-21T02:32:45;4.30;;;1.50;;
73951;SDS011;62304;47.662;18.324;2024-02-21T02:35:49;6.62;;;1.80;;
73951;SDS011;62304;47.662;18.324;2024-02-21T02:38:52;5.82;;;1.77;;
73951;SDS011;62304;47.662;18.324;2024-02-21T02:41:55;7.07;;;1.75;;
73951;SDS011;62304;47.662;18.324;2024-02-21T02:44:58;4.77;;;2.10;;
73951;SDS011;62304;47.662;18.324;2024-02-21T02:48:02;7.78;;;2.08;;
73951;SDS011;62304;47.662;18.324;2024-02-21T02:51:05;5.90;;;1.70;;
73951;SDS011;62304;47.662;18.324;2024-02-21T02:54:09;4.80;;;1.60;;
73951;SDS011;62304;47.662;18.324;2024-02-21T02:57:12;4.28;;;1.85;;
73951;SDS011;62304;47.662;18.324;2024-02-21T03:00:15;4.87;;;1.57;;
73951;SDS011;62304;47.662;18.324;2024-02-21T03:03:19;6.62;;;1.98;;
73951;SDS011;62304;47.662;18.324;2024-02-21T03:06:22;6.50;;;1.90;;
73951;SDS011;62304;47.662;18.324;2024-02-21T03:09:25;6.37;;;2.03;;
73951;SDS011;62304;47.662;18.324;2024-02-21T03:12:28;6.40;;;1.80;;
73951;SDS011;62304;47.662;18.324;2024-02-21T03:15:31;4.97;;;1.63;;
73951;SDS011;62304;47.662;18.324;2024-02-21T03:18:34;5.62;;;1.80;;
73951;SDS011;62304;47.662;18.324;2024-02-21T03:21:38;5.65;;;2.00;;
73951;SDS011;62304;47.662;18.324;2024-02-21T03:24:42;4.40;;;1.40;;
73951;SDS011;62304;47.662;18.324;2024-02-21T03:27:45;5.95;;;1.73;;
73951;SDS011;62304;47.662;18.324;2024-02-21T03:30:48;6.10;;;2.00;;
73951;SDS011;62304;47.662;18.324;2024-02-21T03:33:51;7.40;;;1.62;;
73951;SDS011;62304;47.662;18.324;2024-02-21T03:36:55;5.65;;;1.77;;
73951;SDS011;62304;47.662;18.324;2024-02-21T03:39:58;5.93;;;1.65;;
73951;SDS011;62304;47.662;18.324;2024-02-21T03:43:01;5.57;;;1.80;;
73951;SDS011;62304;47.662;18.324;2024-02-21T03:46:04;7.80;;;1.80;;
73951;SDS011;62304;47.662;18.324;2024-02-21T03:49:09;4.85;;;1.70;;
73951;SDS011;62304;47.662;18.324;2024-02-21T03:52:12;7.30;;;2.00;;
73951;SDS011;62304;47.662;18.324;2024-02-21T03:55:15;5.03;;;1.90;;
73951;SDS011;62304;47.662;18.324;2024-02-21T03:58:18;4.57;;;1.60;;
73951;SDS011;62304;47.662;18.324;2024-02-21T04:01:21;5.93;;;1.73;;
73951;SDS011;62304;47.662;18.324;2024-02-21T04:04:25;7.95;;;2.00;;
73951;SDS011;62304;47.662;18.324;2024-02-21T04:07:28;5.95;;;1.92;;
73951;SDS011;62304;47.662;18.324;2024-02-21T04:10:32;8.77;;;2.13;;
73951;SDS011;62304;47.662;18.324;2024-02-21T04:13:35;6.10;;;2.17;;
73951;SDS011;62304;47.662;18.324;2024-02-21T04:16:38;5.30;;;1.73;;
73951;SDS011;62304;47.662;18.324;2024-02-21T04:19:42;7.80;;;2.00;;
73951;SDS011;62304;47.662;18.324;2024-02-21T04:22:45;6.57;;;1.95;;
73951;SDS011;62304;47.662;18.324;2024-02-21T04:25:49;5.40;;;1.70;;
73951;SDS011;62304;47.662;18.324;2024-02-21T04:28:52;6.00;;;1.60;;
73951;SDS011;62304;47.662;18.324;2024-02-21T04:31:55;5.68;;;1.90;;
73951;SDS011;62304;47.662;18.324;2024-02-21T04:34:59;6.50;;;1.87;;
73951;SDS011;62304;47.662;18.324;2024-02-21T04:38:02;5.03;;;1.95;;
73951;SDS011;62304;47.662;18.324;2024-02-21T04:41:06;7.43;;;2.20;;
73951;SDS011;62304;47.662;18.324;2024-02-21T04:44:10;9.20;;;2.00;;
73951;SDS011;62304;47.662;18.324;2024-02-21T04:47:13;6.10;;;1.80;;
73951;SDS011;62304;47.662;18.324;2024-02-21T04:50:16;5.72;;;2.10;;
73951;SDS011;62304;47.662;18.324;2024-02-21T04:53:20;8.38;;;1.62;;
73951;SDS011;62304;47.662;18.324;2024-02-21T04:56:23;7.07;;;1.90;;
73951;SDS011;62304;47.662;18.324;2024-02-21T04:59:26;6.45;;;2.17;;
73951;SDS011;62304;47.662;18.324;2024-02-21T05:02:29;5.72;;;2.08;;
73951;SDS011;62304;47.662;18.324;2024-02-21T05:05:33;7.37;;;2.53;;
73951;SDS011;62304;47.662;18.324;2024-02-21T05:08:36;7.30;;;1.83;;
73951;SDS011;62304;47.662;18.324;2024-02-21T05:11:39;6.20;;;2.40;;
73951;SDS011;62304;47.662;18.324;2024-02-21T05:14:42;10.75;;;2.50;;
73951;SDS011;62304;47.662;18.324;2024-02-21T05:17:46;7.80;;;2.30;;
73951;SDS011;62304;47.662;18.324;2024-02-21T05:20:49;7.97;;;2.30;;
73951;SDS011;62304;47.662;18.324;2024-02-21T05:23:52;9.38;;;2.28;;
73951;SDS011;62304;47.662;18.324;2024-02-21T05:26:55;5.47;;;2.03;;
73951;SDS011;62304;47.662;18.324;2024-02-21T05:29:59;8.85;;;2.17;;
73951;SDS011;62304;47.662;18.324;2024-02-21T05:33:05;5.97;;;2.00;;
73951;SDS011;62304;47.662;18.324;2024-02-21T05:36:09;8.55;;;2.53;;
73951;SDS011;62304;47.662;18.324;2024-02-21T05:39:12;6.32;;;2.25;;
73951;SDS011;62304;47.662;18.324;2024-02-21T05:42:16;9.40;;;2.90;;
73951;SDS011;62304;47.662;18.324;2024-02-21T05:45:19;9.57;;;3.25;;
73951;SDS011;62304;47.662;18.324;2024-02-21T05:48:22;11.65;;;3.72;;
73951;SDS011;62304;47.662;18.324;2024-02-21T05:51:26;8.00;;;3.08;;
73951;SDS011;62304;47.662;18.324;2024-02-21T05:54:30;9.63;;;3.70;;
73951;SDS011;62304;47.662;18.324;2024-02-21T05:57:32;12.00;;;3.77;;
73951;SDS011;62304;47.662;18.324;2024-02-21T06:00:36;10.02;;;3.08;;
73951;SDS011;62304;47.662;18.324;2024-02-21T06:03:40;13.20;;;3.67;;
73951;SDS011;62304;47.662;18.324;2024-02-21T06:06:43;9.98;;;4.45;;
73951;SDS011;62304;47.662;18.324;2024-02-21T06:09:46;30.00;;;12.03;;
73951;SDS011;62304;47.662;18.324;2024-02-21T06:12:49;13.70;;;4.80;;
73951;SDS011;62304;47.662;18.324;2024-02-21T06:15:53;17.70;;;5.55;;
73951;SDS011;62304;47.662;18.324;2024-02-21T06:18:56;143.15;;;52.42;;
73951;SDS011;62304;47.662;18.324;2024-02-21T06:21:59;33.15;;;14.23;;
73951;SDS011;62304;47.662;18.324;2024-02-21T06:25:02;22.80;;;10.07;;
73951;SDS011;62304;47.662;18.324;2024-02-21T06:28:06;24.08;;;12.13;;
73951;SDS011;62304;47.662;18.324;2024-02-21T06:31:09;16.25;;;8.77;;
73951;SDS011;62304;47.662;18.324;2024-02-21T06:34:12;25.27;;;14.02;;
73951;SDS011;62304;47.662;18.324;2024-02-21T06:37:15;21.17;;;8.70;;
73951;SDS011;62304;47.662;18.324;2024-02-21T06:40:22;14.57;;;7.22;;
73951;SDS011;62304;47.662;18.324;2024-02-21T06:43:25;11.43;;;6.95;;
73951;SDS011;62304;47.662;18.324;2024-02-21T06:46:29;13.05;;;4.90;;
73951;SDS011;62304;47.662;18.324;2024-02-21T06:49:33;13.98;;;4.68;;
73951;SDS011;62304;47.662;18.324;2024-02-21T06:52:37;10.40;;;4.23;;
73951;SDS011;62304;47.662;18.324;2024-02-21T06:55:39;12.57;;;5.53;;
73951;SDS011;62304;47.662;18.324;2024-02-21T06:58:43;16.27;;;4.57;;
73951;SDS011;62304;47.662;18.324;2024-02-21T07:01:49;10.60;;;4.10;;
73951;SDS011;62304;47.662;18.324;2024-02-21T07:04:57;9.23;;;4.33;;
73951;SDS011;62304;47.662;18.324;2024-02-21T07:08:00;13.93;;;3.73;;
73951;SDS011;62304;47.662;18.324;2024-02-21T07:11:03;9.32;;;3.08;;
73951;SDS011;62304;47.662;18.324;2024-02-21T07:14:06;9.02;;;2.78;;
73951;SDS011;62304;47.662;18.324;2024-02-21T07:17:10;10.48;;;3.42;;
73951;SDS011;62304;47.662;18.324;2024-02-21T07:20:13;7.50;;;3.00;;
73951;SDS011;62304;47.662;18.324;2024-02-21T07:23:16;8.97;;;2.90;;
73951;SDS011;62304;47.662;18.324;2024-02-21T07:26:19;7.25;;;2.33;;
73951;SDS011;62304;47.662;18.324;2024-02-21T07:29:23;8.98;;;2.80;;
73951;SDS011;62304;47.662;18.324;2024-02-21T07:32:26;9.48;;;2.92;;
73951;SDS011;62304;47.662;18.324;2024-02-21T07:35:29;8.83;;;2.10;;
73951;SDS011;62304;47.662;18.324;2024-02-21T07:38:32;7.70;;;2.20;;
73951;SDS011;62304;47.662;18.324;2024-02-21T07:41:35;7.45;;;2.47;;
73951;SDS011;62304;47.662;18.324;2024-02-21T07:44:38;5.30;;;2.05;;
73951;SDS011;62304;47.662;18.324;2024-02-21T07:47:41;13.15;;;3.28;;
73951;SDS011;62304;47.662;18.324;2024-02-21T07:50:44;10.33;;;3.00;;
73951;SDS011;62304;47.662;18.324;2024-02-21T07:53:47;14.63;;;3.35;;
73951;SDS011;62304;47.662;18.324;2024-02-21T07:56:51;7.82;;;2.25;;
73951;SDS011;62304;47.662;18.324;2024-02-21T07:59:54;5.75;;;2.30;;
73951;SDS011;62304;47.662;18.324;2024-02-21T08:02:57;6.97;;;2.87;;
73951;SDS011;62304;47.662;18.324;2024-02-21T08:06:00;8.53;;;2.60;;
73951;SDS011;62304;47.662;18.324;2024-02-21T08:09:03;5.93;;;2.08;;
73951;SDS011;62304;47.662;18.324;2024-02-21T08:12:07;6.25;;;2.65;;
73951;SDS011;62304;47.662;18.324;2024-02-21T08:15:10;8.07;;;2.90;;
73951;SDS011;62304;47.662;18.324;2024-02-21T08:18:15;8.45;;;2.50;;
73951;SDS011;62304;47.662;18.324;2024-02-21T08:21:18;9.20;;;2.43;;
73951;SDS011;62304;47.662;18.324;2024-02-21T08:24:21;6.70;;;2.60;;
73951;SDS011;62304;47.662;18.324;2024-02-21T08:27:25;7.15;;;2.60;;
73951;SDS011;62304;47.662;18.324;2024-02-21T08:30:28;11.65;;;2.67;;
73951;SDS011;62304;47.662;18.324;2024-02-21T08:33:31;16.90;;;2.97;;
73951;SDS011;62304;47.662;18.324;2024-02-21T08:36:35;9.07;;;2.90;;
73951;SDS011;62304;47.662;18.324;2024-02-21T08:39:38;8.80;;;2.08;;
73951;SDS011;62304;47.662;18.324;2024-02-21T08:42:41;9.70;;;2.97;;
73951;SDS011;62304;47.662;18.324;2024-02-21T08:45:44;8.52;;;2.95;;
73951;SDS011;62304;47.662;18.324;2024-02-21T08:48:48;5.50;;;1.25;;
73951;SDS011;62304;47.662;18.324;2024-02-21T08:51:51;9.60;;;2.40;;
73951;SDS011;62304;47.662;18.324;2024-02-21T08:54:54;8.95;;;2.50;;
73951;SDS011;62304;47.662;18.324;2024-02-21T08:57:57;10.40;;;2.78;;
73951;SDS011;62304;47.662;18.324;2024-02-21T09:01:01;9.20;;;2.70;;
73951;SDS011;62304;47.662;18.324;2024-02-21T09:04:04;8.38;;;2.62;;
73951;SDS011;62304;47.662;18.324;2024-02-21T09:07:08;10.77;;;2.10;;
73951;SDS011;62304;47.662;18.324;2024-02-21T09:10:11;4.50;;;1.30;;
73951;SDS011;62304;47.662;18.324;2024-02-21T09:13:14;6.62;;;2.05;;
73951;SDS011;62304;47.662;18.324;2024-02-21T09:16:17;7.90;;;2.42;;
73951;SDS011;62304;47.662;18.324;2024-02-21T09:19:20;7.70;;;2.65;;
73951;SDS011;62304;47.662;18.324;2024-02-21T09:22:23;9.70;;;2.80;;
73951;SDS011;62304;47.662;18.324;2024-02-21T09:25:27;10.07;;;2.70;;
73951;SDS011;62304;47.662;18.324;2024-02-21T09:28:30;8.95;;;2.83;;
73951;SDS011;62304;47.662;18.324;2024-02-21T09:31:34;5.18;;;1.83;;
73951;SDS011;62304;47.662;18.324;2024-02-21T09:34:37;8.95;;;3.22;;
73951;SDS011;62304;47.662;18.324;2024-02-21T09:37:41;8.43;;;2.83;;
73951;SDS011;62304;47.662;18.324;2024-02-21T09:40:44;7.50;;;2.30;;
73951;SDS011;62304;47.662;18.324;2024-02-21T09:43:49;7.47;;;2.90;;
73951;SDS011;62304;47.662;18.324;2024-02-21T09:46:57;10.18;;;2.70;;
73951;SDS011;62304;47.662;18.324;2024-02-21T09:50:09;6.32;;;2.50;;
73951;SDS011;62304;47.662;18.324;2024-02-21T09:53:14;7.83;;;2.70;;
73951;SDS011;62304;47.662;18.324;2024-02-21T09:56:17;7.87;;;2.97;;
73951;SDS011;62304;47.662;18.324;2024-02-21T09:59:20;6.22;;;2.95;;
73951;SDS011;62304;47.662;18.324;2024-02-21T10:02:25;9.60;;;2.80;;
73951;SDS011;62304;47.662;18.324;2024-02-21T10:05:29;9.35;;;3.10;;
73951;SDS011;62304;47.662;18.324;2024-02-21T10:08:32;5.23;;;2.10;;
73951;SDS011;62304;47.662;18.324;2024-02-21T10:11:35;11.90;;;3.50;;
73951;SDS011;62304;47.662;18.324;2024-02-21T10:14:39;8.40;;;2.40;;
73951;SDS011;62304;47.662;18.324;2024-02-21T10:17:43;6.70;;;2.03;;
73951;SDS011;62304;47.662;18.324;2024-02-21T10:20:46;8.85;;;2.20;;
73951;SDS011;62304;47.662;18.324;2024-02-21T10:23:49;5.93;;;1.27;;
73951;SDS011;62304;47.662;18.324;2024-02-21T10:27:07;6.43;;;2.12;;
73951;SDS011;62304;47.662;18.324;2024-02-21T10:30:14;8.88;;;2.25;;
73951;SDS011;62304;47.662;18.324;2024-02-21T10:33:18;7.65;;;2.00;;
73951;SDS011;62304;47.662;18.324;2024-02-21T10:36:25;5.43;;;2.05;;
73951;SDS011;62304;47.662;18.324;2024-02-21T10:39:30;6.20;;;2.00;;
73951;SDS011;62304;47.662;18.324;2024-02-21T10:42:35;8.57;;;2.33;;
73951;SDS011;62304;47.662;18.324;2024-02-21T10:45:40;8.23;;;2.55;;
73951;SDS011;62304;47.662;18.324;2024-02-21T10:48:45;8.02;;;2.47;;
73951;SDS011;62304;47.662;18.324;2024-02-21T10:51:49;7.18;;;2.10;;
73951;SDS011;62304;47.662;18.324;2024-02-21T10:55:03;6.43;;;1.97;;
73951;SDS011;62304;47.662;18.324;2024-02-21T10:58:07;7.70;;;1.80;;
73951;SDS011;62304;47.662;18.324;2024-02-21T11:01:13;7.97;;;2.40;;
73951;SDS011;62304;47.662;18.324;2024-02-21T11:04:18;6.80;;;2.40;;
73951;SDS011;62304;47.662;18.324;2024-02-21T11:07:22;5.55;;;1.90;;
73951;SDS011;62304;47.662;18.324;2024-02-21T11:10:26;7.57;;;1.70;;
73951;SDS011;62304;47.662;18.324;2024-02-21T11:13:30;8.23;;;2.33;;
73951;SDS011;62304;47.662;18.324;2024-02-21T11:16:40;5.60;;;1.55;;
73951;SDS011;62304;47.662;18.324;2024-02-21T11:19:44;12.07;;;2.62;;
73951;SDS011;62304;47.662;18.324;2024-02-21T11:22:48;7.53;;;2.05;;
73951;SDS011;62304;47.662;18.324;2024-02-21T11:25:52;8.70;;;2.47;;
73951;SDS011;62304;47.662;18.324;2024-02-21T11:29:06;5.87;;;1.92;;
73951;SDS011;62304;47.662;18.324;2024-02-21T11:32:15;7.32;;;2.65;;
73951;SDS011;62304;47.662;18.324;2024-02-21T11:35:21;9.88;;;2.28;;
73951;SDS011;62304;47.662;18.324;2024-02-21T11:38:25;9.27;;;2.37;;
73951;SDS011;62304;47.662;18.324;2024-02-21T11:41:28;9.93;;;2.70;;
73951;SDS011;62304;47.662;18.324;2024-02-21T11:44:31;13.25;;;3.00;;
73951;SDS011;62304;47.662;18.324;2024-02-21T11:47:35;7.53;;;2.87;;
73951;SDS011;62304;47.662;18.324;2024-02-21T11:50:42;7.95;;;2.35;;
73951;SDS011;62304;47.662;18.324;2024-02-21T11:53:54;7.50;;;2.03;;
73951;SDS011;62304;47.662;18.324;2024-02-21T11:57:04;9.00;;;2.27;;
73951;SDS011;62304;47.662;18.324;2024-02-21T12:00:11;6.80;;;2.15;;
73951;SDS011;62304;47.662;18.324;2024-02-21T12:03:16;8.73;;;2.33;;
73951;SDS011;62304;47.662;18.324;2024-02-21T12:06:20;6.28;;;1.98;;
73951;SDS011;62304;47.662;18.324;2024-02-21T12:09:25;8.48;;;2.17;;
73951;SDS011;62304;47.662;18.324;2024-02-21T12:12:28;8.00;;;1.93;;
73951;SDS011;62304;47.662;18.324;2024-02-21T12:15:32;7.30;;;2.15;;
73951;SDS011;62304;47.662;18.324;2024-02-21T12:18:35;5.03;;;1.37;;
73951;SDS011;62304;47.662;18.324;2024-02-21T12:21:38;5.97;;;1.90;;
73951;SDS011;62304;47.662;18.324;2024-02-21T12:24:43;7.97;;;1.70;;
73951;SDS011;62304;47.662;18.324;2024-02-21T12:27:51;7.30;;;1.80;;
73951;SDS011;62304;47.662;18.324;2024-02-21T12:30:54;4.00;;;1.25;;
73951;SDS011;62304;47.662;18.324;2024-02-21T12:33:57;6.93;;;1.77;;
73951;SDS011;62304;47.662;18.324;2024-02-21T12:37:02;7.03;;;1.42;;
73951;SDS011;62304;47.662;18.324;2024-02-21T12:40:08;6.72;;;1.60;;
73951;SDS011;62304;47.662;18.324;2024-02-21T12:43:13;3.90;;;1.40;;
73951;SDS011;62304;47.662;18.324;2024-02-21T12:46:18;6.95;;;1.77;;
73951;SDS011;62304;47.662;18.324;2024-02-21T12:49:21;8.98;;;2.45;;
73951;SDS011;62304;47.662;18.324;2024-02-21T12:52:25;8.20;;;3.15;;
73951;SDS011;62304;47.662;18.324;2024-02-21T12:55:28;8.85;;;2.50;;
73951;SDS011;62304;47.662;18.324;2024-02-21T12:58:32;14.00;;;2.07;;
73951;SDS011;62304;47.662;18.324;2024-02-21T13:01:36;18.58;;;7.85;;
73951;SDS011;62304;47.662;18.324;2024-02-21T13:04:41;23.23;;;8.65;;
73951;SDS011;62304;47.662;18.324;2024-02-21T13:07:44;8.05;;;2.87;;
73951;SDS011;62304;47.662;18.324;2024-02-21T13:10:48;7.15;;;2.50;;
73951;SDS011;62304;47.662;18.324;2024-02-21T13:13:55;8.03;;;2.03;;
73951;SDS011;62304;47.662;18.324;2024-02-21T13:16:58;5.10;;;1.15;;
73951;SDS011;62304;47.662;18.324;2024-02-21T13:20:01;6.90;;;1.98;;
73951;SDS011;62304;47.662;18.324;2024-02-21T13:23:05;7.03;;;1.80;;
73951;SDS011;62304;47.662;18.324;2024-02-21T13:26:08;6.43;;;1.90;;
73951;SDS011;62304;47.662;18.324;2024-02-21T13:29:12;6.67;;;1.97;;
73951;SDS011;62304;47.662;18.324;2024-02-21T13:32:16;12.73;;;4.57;;
73951;SDS011;62304;47.662;18.324;2024-02-21T13:35:19;7.37;;;2.22;;
73951;SDS011;62304;47.662;18.324;2024-02-21T13:38:23;6.30;;;1.70;;
73951;SDS011;62304;47.662;18.324;2024-02-21T13:41:27;6.72;;;2.58;;
73951;SDS011;62304;47.662;18.324;2024-02-21T13:44:30;8.97;;;2.00;;
73951;SDS011;62304;47.662;18.324;2024-02-21T13:47:33;6.62;;;1.70;;
73951;SDS011;62304;47.662;18.324;2024-02-21T13:50:38;6.75;;;1.87;;
73951;SDS011;62304;47.662;18.324;2024-02-21T13:53:46;6.85;;;2.12;;
73951;SDS011;62304;47.662;18.324;2024-02-21T13:56:49;35.28;;;15.70;;
73951;SDS011;62304;47.662;18.324;2024-02-21T13:59:52;7.67;;;3.13;;
73951;SDS011;62304;47.662;18.324;2024-02-21T14:02:55;9.95;;;5.18;;
73951;SDS011;62304;47.662;18.324;2024-02-21T14:06:01;9.75;;;4.35;;
73951;SDS011;62304;47.662;18.324;2024-02-21T14:09:04;6.75;;;2.03;;
73951;SDS011;62304;47.662;18.324;2024-02-21T14:12:07;7.18;;;2.00;;
73951;SDS011;62304;47.662;18.324;2024-02-21T14:15:10;8.00;;;3.27;;
73951;SDS011;62304;47.662;18.324;2024-02-21T14:18:13;6.03;;;1.70;;
73951;SDS011;62304;47.662;18.324;2024-02-21T14:21:18;8.32;;;2.30;;
73951;SDS011;62304;47.662;18.324;2024-02-21T14:24:23;6.22;;;2.35;;
73951;SDS011;62304;47.662;18.324;2024-02-21T14:27:26;7.45;;;1.90;;
73951;SDS011;62304;47.662;18.324;2024-02-21T14:30:29;8.50;;;2.50;;
73951;SDS011;62304;47.662;18.324;2024-02-21T14:33:32;7.32;;;1.95;;
73951;SDS011;62304;47.662;18.324;2024-02-21T14:36:36;7.07;;;2.28;;
73951;SDS011;62304;47.662;18.324;2024-02-21T14:39:39;9.43;;;2.17;;
73951;SDS011;62304;47.662;18.324;2024-02-21T14:42:43;8.27;;;2.00;;
73951;SDS011;62304;47.662;18.324;2024-02-21T14:45:46;7.50;;;2.57;;
73951;SDS011;62304;47.662;18.324;2024-02-21T14:48:50;16.37;;;5.82;;
73951;SDS011;62304;47.662;18.324;2024-02-21T14:51:54;6.82;;;2.15;;
73951;SDS011;62304;47.662;18.324;2024-02-21T14:54:57;8.15;;;2.65;;
73951;SDS011;62304;47.662;18.324;2024-02-21T14:58:01;6.72;;;2.60;;
73951;SDS011;62304;47.662;18.324;2024-02-21T15:01:04;9.80;;;2.90;;
73951;SDS011;62304;47.662;18.324;2024-02-21T15:04:08;9.90;;;2.53;;
73951;SDS011;62304;47.662;18.324;2024-02-21T15:07:11;7.12;;;2.85;;
73951;SDS011;62304;47.662;18.324;2024-02-21T15:10:14;13.13;;;3.20;;
73951;SDS011;62304;47.662;18.324;2024-02-21T15:13:17;11.82;;;3.10;;
73951;SDS011;62304;47.662;18.324;2024-02-21T15:16:21;8.73;;;3.17;;
73951;SDS011;62304;47.662;18.324;2024-02-21T15:19:24;12.15;;;2.80;;
73951;SDS011;62304;47.662;18.324;2024-02-21T15:22:27;10.05;;;3.08;;
73951;SDS011;62304;47.662;18.324;2024-02-21T15:25:30;16.30;;;4.35;;
73951;SDS011;62304;47.662;18.324;2024-02-21T15:28:33;9.82;;;3.62;;
73951;SDS011;62304;47.662;18.324;2024-02-21T15:31:37;16.23;;;4.50;;
73951;SDS011;62304;47.662;18.324;2024-02-21T15:34:40;14.30;;;5.28;;
73951;SDS011;62304;47.662;18.324;2024-02-21T15:37:44;12.50;;;4.62;;
73951;SDS011;62304;47.662;18.324;2024-02-21T15:40:47;10.13;;;3.67;;
73951;SDS011;62304;47.662;18.324;2024-02-21T15:43:51;16.65;;;4.55;;
73951;SDS011;62304;47.662;18.324;2024-02-21T15:46:56;11.53;;;4.43;;
73951;SDS011;62304;47.662;18.324;2024-02-21T15:49:59;10.05;;;4.30;;
73951;SDS011;62304;47.662;18.324;2024-02-21T15:53:04;13.60;;;5.30;;
73951;SDS011;62304;47.662;18.324;2024-02-21T15:56:07;17.75;;;5.68;;
73951;SDS011;62304;47.662;18.324;2024-02-21T15:59:11;12.13;;;4.53;;
73951;SDS011;62304;47.662;18.324;2024-02-21T16:02:15;12.47;;;4.80;;
73951;SDS011;62304;47.662;18.324;2024-02-21T16:05:19;11.80;;;5.18;;
73951;SDS011;62304;47.662;18.324;2024-02-21T16:08:22;18.73;;;7.60;;
73951;SDS011;62304;47.662;18.324;2024-02-21T16:11:25;20.77;;;8.90;;
73951;SDS011;62304;47.662;18.324;2024-02-21T16:14:29;17.87;;;9.18;;
73951;SDS011;62304;47.662;18.324;2024-02-21T16:17:32;36.20;;;16.67;;
73951;SDS011;62304;47.662;18.324;2024-02-21T16:20:35;34.78;;;14.80;;
73951;SDS011;62304;47.662;18.324;2024-02-21T16:23:39;38.33;;;19.60;;
73951;SDS011;62304;47.662;18.324;2024-02-21T16:26:42;64.22;;;22.48;;
73951;SDS011;62304;47.662;18.324;2024-02-21T16:29:47;66.07;;;22.85;;
73951;SDS011;62304;47.662;18.324;2024-02-21T16:32:50;58.80;;;20.33;;
73951;SDS011;62304;47.662;18.324;2024-02-21T16:35:55;36.85;;;11.60;;
73951;SDS011;62304;47.662;18.324;2024-02-21T16:38:59;37.55;;;10.25;;
73951;SDS011;62304;47.662;18.324;2024-02-21T16:42:03;22.08;;;7.20;;
73951;SDS011;62304;47.662;18.324;2024-02-21T16:45:07;26.15;;;6.93;;
73951;SDS011;62304;47.662;18.324;2024-02-21T16:48:11;18.63;;;6.00;;
73951;SDS011;62304;47.662;18.324;2024-02-21T16:51:15;20.62;;;7.80;;
73951;SDS011;62304;47.662;18.324;2024-02-21T16:54:25;22.08;;;7.50;;
73951;SDS011;62304;47.662;18.324;2024-02-21T16:57:28;19.33;;;6.18;;
73951;SDS011;62304;47.662;18.324;2024-02-21T17:00:32;16.07;;;5.33;;
73951;SDS011;62304;47.662;18.324;2024-02-21T17:03:35;26.37;;;8.23;;
73951;SDS011;62304;47.662;18.324;2024-02-21T17:06:39;23.90;;;9.38;;
73951;SDS011;62304;47.662;18.324;2024-02-21T17:09:42;21.23;;;8.60;;
73951;SDS011;62304;47.662;18.324;2024-02-21T17:12:45;22.30;;;9.40;;
73951;SDS011;62304;47.662;18.324;2024-02-21T17:15:48;28.23;;;10.93;;
73951;SDS011;62304;47.662;18.324;2024-02-21T17:18:52;27.67;;;12.00;;
73951;SDS011;62304;47.662;18.324;2024-02-21T17:21:55;28.00;;;10.93;;
73951;SDS011;62304;47.662;18.324;2024-02-21T17:24:58;25.27;;;10.40;;
73951;SDS011;62304;47.662;18.324;2024-02-21T17:28:01;22.02;;;10.40;;
73951;SDS011;62304;47.662;18.324;2024-02-21T17:31:05;21.17;;;9.13;;
73951;SDS011;62304;47.662;18.324;2024-02-21T17:34:08;26.50;;;9.32;;
73951;SDS011;62304;47.662;18.324;2024-02-21T17:37:12;21.87;;;10.45;;
73951;SDS011;62304;47.662;18.324;2024-02-21T17:40:15;24.35;;;10.30;;
73951;SDS011;62304;47.662;18.324;2024-02-21T17:43:19;25.33;;;11.85;;
73951;SDS011;62304;47.662;18.324;2024-02-21T17:46:24;74.70;;;31.20;;
73951;SDS011;62304;47.662;18.324;2024-02-21T17:49:27;30.55;;;12.37;;
73951;SDS011;62304;47.662;18.324;2024-02-21T17:52:31;27.20;;;10.20;;
73951;SDS011;62304;47.662;18.324;2024-02-21T17:55:35;48.45;;;15.75;;
73951;SDS011;62304;47.662;18.324;2024-02-21T17:58:39;118.47;;;42.42;;
73951;SDS011;62304;47.662;18.324;2024-02-21T18:01:42;76.20;;;26.47;;
73951;SDS011;62304;47.662;18.324;2024-02-21T18:04:46;87.53;;;30.10;;